Time;durP1;ratioP1;P1;durP2;ratioP2;P2;SDS_P1;SDS_P2;PMS_P1;PMS_P2;Temp;Humidity;BMP_temperature;BMP_pressure;BME280_temperature;BME280_humidity;BME280_pressure;Samples;Min_cycle;Max_cycle;Signal;HPM_P1;HPM_P2
2021/12/23 00:01:07;;;;;;;89.00;43.28;;;;;;;;;;4979427;28;20023;-87
2021/12/23 00:03:33;;;;;;;123.03;50.10;;;;;;;;;;4979601;28;20026;-87
2021/12/23 00:06:00;;;;;;;140.27;60.78;;;;;;;;;;4979064;28;20065;-85
2021/12/23 00:08:26;;;;;;;154.65;65.45;;;;;;;;;;4979381;28;20030;-86
2021/12/23 00:10:52;;;;;;;141.07;65.43;;;;;;;;;;4979175;28;20436;-86
2021/12/23 00:13:18;;;;;;;132.65;61.15;;;;;;;;;;4979346;28;20026;-86
2021/12/23 00:18:44;;;;;;;149.40;62.20;;;;;;;;;;4979385;28;20050;-86
2021/12/23 00:23:58;;;;;;;99.07;49.17;;;;;;;;;;4979310;28;20042;-86
2021/12/23 00:26:24;;;;;;;88.72;46.08;;;;;;;;;;4978952;28;20445;-87
2021/12/23 00:28:51;;;;;;;82.68;44.55;;;;;;;;;;4979233;28;20031;-87
2021/12/23 00:31:17;;;;;;;74.05;39.97;;;;;;;;;;4979041;28;20026;-86
2021/12/23 00:33:44;;;;;;;71.13;37.22;;;;;;;;;;4978043;28;20081;-87
2021/12/23 00:36:11;;;;;;;95.18;44.20;;;;;;;;;;4978945;28;20034;-88
2021/12/23 00:38:53;;;;;;;115.43;53.85;;;;;;;;;;4978945;28;20018;-86
2021/12/23 00:41:20;;;;;;;86.63;43.13;;;;;;;;;;4929967;28;1441580;-86
2021/12/23 00:43:46;;;;;;;77.70;39.15;;;;;;;;;;4979620;28;20041;-86
2021/12/23 00:46:13;;;;;;;72.13;37.10;;;;;;;;;;4979653;28;20106;-86
2021/12/23 00:48:39;;;;;;;94.07;45.22;;;;;;;;;;4978659;28;20051;-86
2021/12/23 00:51:05;;;;;;;100.53;47.97;;;;;;;;;;4979519;28;20023;-87
2021/12/23 00:53:37;;;;;;;86.68;44.90;;;;;;;;;;4978588;28;20054;-87
2021/12/23 00:56:03;;;;;;;87.47;40.33;;;;;;;;;;4979445;28;20030;-87
2021/12/23 00:58:29;;;;;;;75.50;36.63;;;;;;;;;;4978526;28;20023;-87
2021/12/23 01:00:58;;;;;;;62.97;32.00;;;;;;;;;;4979068;28;20023;-87
2021/12/23 01:03:24;;;;;;;65.18;32.70;;;;;;;;;;4977916;28;20041;-86
2021/12/23 01:05:50;;;;;;;94.13;45.67;;;;;;;;;;4979262;28;20027;-86
2021/12/23 01:08:19;;;;;;;94.65;45.88;;;;;;;;;;4979301;28;20022;-86
2021/12/23 01:10:45;;;;;;;93.95;44.15;;;;;;;;;;4979343;28;20105;-86
2021/12/23 01:13:14;;;;;;;73.47;37.90;;;;;;;;;;4979196;28;20038;-86
2021/12/23 01:15:58;;;;;;;71.15;38.35;;;;;;;;;;4979137;28;20043;-87
2021/12/23 01:18:24;;;;;;;100.43;46.08;;;;;;;;;;4978956;28;20440;-86
2021/12/23 01:20:52;;;;;;;113.82;52.28;;;;;;;;;;4979320;28;20037;-86
2021/12/23 01:23:22;;;;;;;128.23;56.58;;;;;;;;;;4978979;28;20321;-86
2021/12/23 01:25:49;;;;;;;124.95;53.75;;;;;;;;;;4979036;28;20031;-86
2021/12/23 01:28:15;;;;;;;110.45;49.28;;;;;;;;;;4977929;28;20061;-86
2021/12/23 01:30:42;;;;;;;79.85;38.88;;;;;;;;;;4978649;28;20050;-85
2021/12/23 01:33:09;;;;;;;68.53;34.78;;;;;;;;;;4977819;28;20475;-86
2021/12/23 01:35:36;;;;;;;74.43;36.78;;;;;;;;;;4978641;28;20078;-86
2021/12/23 01:38:02;;;;;;;80.95;39.08;;;;;;;;;;4978828;28;20409;-85
2021/12/23 01:40:28;;;;;;;94.60;43.15;;;;;;;;;;4978640;28;20046;-85
2021/12/23 01:42:55;;;;;;;104.68;48.03;;;;;;;;;;4978845;28;20329;-85
2021/12/23 01:45:25;;;;;;;100.57;45.28;;;;;;;;;;4978783;28;20027;-85
2021/12/23 01:47:51;;;;;;;84.38;39.35;;;;;;;;;;4978659;28;20070;-85
2021/12/23 01:50:19;;;;;;;93.47;43.50;;;;;;;;;;4977758;28;20114;-86
2021/12/23 01:52:45;;;;;;;106.57;48.33;;;;;;;;;;4978694;28;20027;-87
2021/12/23 01:55:12;;;;;;;82.45;39.70;;;;;;;;;;4978665;28;20042;-86
2021/12/23 01:57:41;;;;;;;55.90;29.95;;;;;;;;;;4978552;28;20038;-86
2021/12/23 02:00:10;;;;;;;60.28;29.92;;;;;;;;;;4978548;28;20062;-86
2021/12/23 02:02:36;;;;;;;58.38;29.38;;;;;;;;;;4978641;28;20042;-86
2021/12/23 02:05:03;;;;;;;63.10;31.50;;;;;;;;;;4978817;28;20070;-86
2021/12/23 02:07:29;;;;;;;55.90;29.25;;;;;;;;;;4978516;28;20397;-86
2021/12/23 02:09:58;;;;;;;48.58;27.73;;;;;;;;;;4978602;28;20038;-86
2021/12/23 02:12:25;;;;;;;45.80;25.98;;;;;;;;;;4978235;28;20035;-85
2021/12/23 02:14:52;;;;;;;45.75;25.80;;;;;;;;;;4978314;28;20039;-85
2021/12/23 02:17:18;;;;;;;44.67;26.63;;;;;;;;;;4980120;28;20088;-86
2021/12/23 02:19:44;;;;;;;49.80;25.73;;;;;;;;;;4982195;28;20397;-86
2021/12/23 02:22:10;;;;;;;45.90;26.02;;;;;;;;;;4982574;28;20102;-87
2021/12/23 02:24:37;;;;;;;52.47;27.15;;;;;;;;;;4982329;28;20069;-86
2021/12/23 02:27:03;;;;;;;48.45;25.58;;;;;;;;;;4982178;28;20476;-85
2021/12/23 02:29:29;;;;;;;43.33;24.27;;;;;;;;;;4982388;28;20038;-85
2021/12/23 02:31:55;;;;;;;46.63;25.73;;;;;;;;;;4981910;28;20033;-86
2021/12/23 02:34:22;;;;;;;55.25;28.30;;;;;;;;;;4981851;28;20058;-86
2021/12/23 02:36:52;;;;;;;67.88;34.33;;;;;;;;;;4980875;28;20031;-86
2021/12/23 02:39:19;;;;;;;56.42;28.67;;;;;;;;;;4981845;28;20026;-86
2021/12/23 02:41:46;;;;;;;44.13;23.73;;;;;;;;;;4980529;28;20170;-86
2021/12/23 02:44:12;;;;;;;40.25;23.75;;;;;;;;;;4981695;28;20030;-86
2021/12/23 02:46:38;;;;;;;48.28;27.40;;;;;;;;;;4981923;28;20509;-86
2021/12/23 02:49:04;;;;;;;47.10;26.35;;;;;;;;;;4982037;28;20030;-87
2021/12/23 02:51:32;;;;;;;40.78;22.45;;;;;;;;;;4981611;28;20035;-86
2021/12/23 02:53:58;;;;;;;35.08;20.17;;;;;;;;;;4980164;28;20035;-85
2021/12/23 02:56:24;;;;;;;36.70;21.33;;;;;;;;;;4981502;28;20023;-86
2021/12/23 02:58:50;;;;;;;40.80;23.00;;;;;;;;;;4981616;28;20038;-86
2021/12/23 03:01:17;;;;;;;45.72;24.67;;;;;;;;;;4981581;28;20015;-87
2021/12/23 03:03:44;;;;;;;48.40;26.17;;;;;;;;;;4981661;28;20023;-85
2021/12/23 03:06:11;;;;;;;43.63;23.90;;;;;;;;;;4980508;28;20029;-85
2021/12/23 03:08:41;;;;;;;38.10;21.20;;;;;;;;;;4981635;28;20399;-86
2021/12/23 03:11:08;;;;;;;42.17;22.95;;;;;;;;;;4980649;28;20034;-87
2021/12/23 03:13:34;;;;;;;41.97;22.17;;;;;;;;;;4981339;28;20031;-87
2021/12/23 03:16:02;;;;;;;39.92;21.42;;;;;;;;;;4980098;28;20031;-86
2021/12/23 03:18:28;;;;;;;42.72;22.67;;;;;;;;;;4981415;28;20026;-86
2021/12/23 03:20:55;;;;;;;41.33;21.77;;;;;;;;;;4981144;28;20014;-86
2021/12/23 03:23:22;;;;;;;43.80;21.67;;;;;;;;;;4981232;28;20030;-85
2021/12/23 03:25:49;;;;;;;42.58;22.30;;;;;;;;;;4981161;28;20302;-86
2021/12/23 03:28:15;;;;;;;41.30;21.58;;;;;;;;;;4979074;28;20026;-87
2021/12/23 03:30:41;;;;;;;62.70;29.85;;;;;;;;;;4980858;28;20433;-86
2021/12/23 03:33:07;;;;;;;53.10;27.83;;;;;;;;;;4980282;28;20035;-86
2021/12/23 03:38:18;;;;;;;60.15;30.52;;;;;;;;;;4981337;28;20045;-86
2021/12/23 03:40:46;;;;;;;77.43;38.08;;;;;;;;;;4979763;28;20047;-86
2021/12/23 03:43:15;;;;;;;79.90;39.33;;;;;;;;;;4980665;28;20019;-87
2021/12/23 03:48:27;;;;;;;92.25;40.75;;;;;;;;;;4981080;28;20488;-87
2021/12/23 03:50:54;;;;;;;61.40;29.65;;;;;;;;;;4979754;28;20027;-86
2021/12/23 03:53:21;;;;;;;57.42;28.10;;;;;;;;;;4980726;28;20034;-87
2021/12/23 03:58:32;;;;;;;128.00;53.67;;;;;;;;;;4981176;28;20097;-86
2021/12/23 04:03:43;;;;;;;143.45;53.47;;;;;;;;;;4980843;28;20060;-87
2021/12/23 04:06:11;;;;;;;190.98;77.43;;;;;;;;;;4979448;28;20418;-87
2021/12/23 04:08:37;;;;;;;230.32;96.18;;;;;;;;;;4979974;28;20067;-87
2021/12/23 04:11:04;;;;;;;213.95;93.47;;;;;;;;;;4980344;28;20022;-86
2021/12/23 04:13:34;;;;;;;177.10;84.05;;;;;;;;;;4980332;28;20030;-85
2021/12/23 04:16:00;;;;;;;143.93;64.22;;;;;;;;;;4980155;28;20331;-86
2021/12/23 04:18:26;;;;;;;136.02;58.75;;;;;;;;;;4980143;28;20027;-86
2021/12/23 04:20:55;;;;;;;133.43;56.80;;;;;;;;;;4979112;28;20111;-85
2021/12/23 04:26:25;;;;;;;105.95;49.20;;;;;;;;;;4980365;28;20034;-86
2021/12/23 04:28:51;;;;;;;129.25;55.28;;;;;;;;;;4978948;28;20063;-86
2021/12/23 04:31:20;;;;;;;117.30;51.38;;;;;;;;;;4979699;28;20153;-86
2021/12/23 04:33:54;;;;;;;100.22;48.40;;;;;;;;;;4979804;28;20425;-86
2021/12/23 04:36:20;;;;;;;108.65;50.75;;;;;;;;;;4979928;28;20448;-86
2021/12/23 04:41:32;;;;;;;94.35;46.42;;;;;;;;;;4979404;28;20065;-85
2021/12/23 04:43:58;;;;;;;84.03;42.53;;;;;;;;;;4979613;28;20066;-86
2021/12/23 04:46:26;;;;;;;80.03;38.65;;;;;;;;;;4979628;28;20070;-85
2021/12/23 04:48:54;;;;;;;73.10;34.80;;;;;;;;;;4978091;28;20412;-86
2021/12/23 04:54:06;;;;;;;65.05;33.08;;;;;;;;;;4979926;28;20057;-86
2021/12/23 04:56:37;;;;;;;73.28;36.25;;;;;;;;;;4979324;28;20034;-86
2021/12/23 04:59:04;;;;;;;72.65;36.17;;;;;;;;;;4979408;28;20070;-85
2021/12/23 05:01:32;;;;;;;88.78;41.30;;;;;;;;;;4979420;28;20023;-85
2021/12/23 05:03:59;;;;;;;90.45;41.75;;;;;;;;;;4979601;28;20114;-86
2021/12/23 05:06:26;;;;;;;91.65;41.53;;;;;;;;;;4978352;28;20050;-86
2021/12/23 05:14:23;;;;;;;87.72;39.65;;;;;;;;;;4979386;28;20033;-86
2021/12/23 05:25:06;;;;;;;102.72;47.90;;;;;;;;;;4979682;28;20455;-85
2021/12/23 05:30:18;;;;;;;100.50;46.33;;;;;;;;;;4979412;28;20041;-85
2021/12/23 05:35:30;;;;;;;179.02;59.60;;;;;;;;;;4979528;28;20081;-85
2021/12/23 05:40:47;;;;;;;118.00;46.08;;;;;;;;;;5021463;23;20353;-86
2021/12/23 05:43:15;;;;;;;118.00;47.42;;;;;;;;;;4979045;28;20409;-86
2021/12/23 05:51:30;;;;;;;88.18;39.17;;;;;;;;;;4978484;28;20050;-86
2021/12/23 05:59:27;;;;;;;122.25;49.30;;;;;;;;;;4978978;28;20349;-86
2021/12/23 06:01:55;;;;;;;110.70;50.05;;;;;;;;;;4977253;28;20057;-86
2021/12/23 06:04:21;;;;;;;615.38;292.70;;;;;;;;;;4977932;28;20334;-86
2021/12/23 06:15:03;;;;;;;141.48;60.05;;;;;;;;;;4978720;28;20033;-86
2021/12/23 06:28:32;;;;;;;416.85;173.75;;;;;;;;;;5039599;23;20399;-86
2021/12/23 06:31:00;;;;;;;120.28;56.50;;;;;;;;;;4981144;28;20405;-87
2021/12/23 06:38:56;;;;;;;85.05;42.10;;;;;;;;;;4998412;28;20041;-87
2021/12/23 06:41:23;;;;;;;91.65;39.90;;;;;;;;;;4997711;28;20027;-86
2021/12/23 06:43:49;;;;;;;96.88;45.55;;;;;;;;;;4997611;28;20352;-87
2021/12/23 07:26:40;;;;;;;87.80;44.13;;;;;;;;;;5039410;23;20055;-86
2021/12/23 07:29:08;;;;;;;71.53;39.05;;;;;;;;;;4981260;28;20027;-86
2021/12/23 07:34:19;;;;;;;66.97;36.65;;;;;;;;;;4981019;28;20041;-87
2021/12/23 07:36:45;;;;;;;82.45;42.58;;;;;;;;;;4980055;28;20031;-87
2021/12/23 07:44:43;;;;;;;138.02;58.03;;;;;;;;;;4981243;28;20064;-86
2021/12/23 07:50:13;;;;;;;175.65;79.88;;;;;;;;;;4981511;28;20473;-87
2021/12/23 07:52:39;;;;;;;206.02;92.70;;;;;;;;;;4979793;28;20030;-86
2021/12/23 07:55:07;;;;;;;116.75;60.03;;;;;;;;;;4979803;28;20317;-87
2021/12/23 07:57:33;;;;;;;83.28;39.50;;;;;;;;;;4979415;28;20039;-87
2021/12/23 08:00:00;;;;;;;75.00;39.95;;;;;;;;;;4979555;28;20027;-86
2021/12/23 08:02:26;;;;;;;86.57;41.05;;;;;;;;;;4980391;28;20105;-87
2021/12/23 08:04:53;;;;;;;141.52;69.80;;;;;;;;;;4980562;28;20102;-87
2021/12/23 08:07:19;;;;;;;175.57;89.13;;;;;;;;;;4980215;28;20030;-88
2021/12/23 08:09:45;;;;;;;146.85;74.22;;;;;;;;;;4979379;28;20031;-88
2021/12/23 08:12:11;;;;;;;109.35;56.60;;;;;;;;;;4979316;28;20488;-86
2021/12/23 08:14:37;;;;;;;157.90;85.65;;;;;;;;;;4978645;28;20039;-87
2021/12/23 08:17:03;;;;;;;372.42;155.75;;;;;;;;;;4978926;28;20039;-87
2021/12/23 08:19:29;;;;;;;247.05;103.75;;;;;;;;;;4980024;28;20023;-87
2021/12/23 08:21:55;;;;;;;153.63;70.65;;;;;;;;;;4980318;28;20023;-87
2021/12/23 08:24:22;;;;;;;112.85;56.20;;;;;;;;;;4979710;28;20019;-88
2021/12/23 08:26:52;;;;;;;97.20;45.92;;;;;;;;;;4978815;28;20046;-87
2021/12/23 08:29:19;;;;;;;90.78;43.45;;;;;;;;;;4979849;28;20042;-88
2021/12/23 08:31:53;;;;;;;109.57;50.90;;;;;;;;;;4979941;28;20035;-87
2021/12/23 08:34:22;;;;;;;148.00;65.80;;;;;;;;;;4979803;28;20417;-88
2021/12/23 08:36:48;;;;;;;109.65;51.38;;;;;;;;;;4979456;28;20038;-87
2021/12/23 08:39:15;;;;;;;139.27;62.53;;;;;;;;;;4979216;28;20033;-87
2021/12/23 08:41:41;;;;;;;168.27;84.40;;;;;;;;;;4979797;28;20070;-85
2021/12/23 08:44:07;;;;;;;128.48;62.97;;;;;;;;;;4979887;28;20046;-87
2021/12/23 08:46:33;;;;;;;133.18;60.92;;;;;;;;;;4979636;28;20023;-86
2021/12/23 08:48:59;;;;;;;133.00;61.38;;;;;;;;;;4979364;28;20026;-87
2021/12/23 08:51:26;;;;;;;113.70;55.72;;;;;;;;;;4979382;28;20097;-87
2021/12/23 08:53:52;;;;;;;118.53;56.25;;;;;;;;;;4979271;28;20051;-87
2021/12/23 08:56:18;;;;;;;145.10;68.53;;;;;;;;;;4978343;28;20046;-87
2021/12/23 08:58:44;;;;;;;131.90;65.07;;;;;;;;;;4978233;28;20081;-87
2021/12/23 09:01:11;;;;;;;169.90;82.38;;;;;;;;;;4978331;28;20117;-86
2021/12/23 09:03:37;;;;;;;164.20;79.70;;;;;;;;;;4978267;28;20026;-87
2021/12/23 09:06:04;;;;;;;116.65;57.95;;;;;;;;;;4978198;28;20042;-87
2021/12/23 09:08:30;;;;;;;107.22;54.20;;;;;;;;;;4979252;28;20038;-86
2021/12/23 09:10:56;;;;;;;115.72;55.55;;;;;;;;;;4979197;28;20027;-85
2021/12/23 09:21:56;;;;;;;117.50;58.45;;;;;;;;;;5048941;23;20058;-87
2021/12/23 09:47:06;;;;;;;107.07;55.90;;;;;;;;;;4998876;28;20037;-87
2021/12/23 09:49:34;;;;;;;124.97;64.13;;;;;;;;;;4998177;28;20053;-87
2021/12/23 09:52:03;;;;;;;158.80;87.30;;;;;;;;;;4997905;28;20042;-87
2021/12/23 09:54:30;;;;;;;329.42;173.25;;;;;;;;;;4998100;28;20018;-87
2021/12/23 09:59:43;;;;;;;121.32;72.68;;;;;;;;;;4998828;28;20038;-87
2021/12/23 10:02:09;;;;;;;102.55;55.83;;;;;;;;;;4997145;28;20076;-89
2021/12/23 10:04:36;;;;;;;167.93;91.40;;;;;;;;;;4996985;28;20023;-88
2021/12/23 10:07:02;;;;;;;176.30;91.97;;;;;;;;;;4997718;28;20084;-88
2021/12/23 10:39:53;;;;;;;102.75;55.00;;;;;;;;;;5001728;28;20046;-88
2021/12/23 10:45:23;;;;;;;170.60;93.95;;;;;;;;;;5001599;28;20044;-87
2021/12/23 10:59:24;;;;;;;93.45;53.63;;;;;;;;;;5001361;28;20034;-87
2021/12/23 11:02:02;;;;;;;94.90;53.05;;;;;;;;;;5000672;28;20030;-87
2021/12/23 11:04:34;;;;;;;87.03;49.60;;;;;;;;;;4999954;28;21014;-87
2021/12/23 11:07:15;;;;;;;87.35;47.25;;;;;;;;;;4999894;28;20030;-88
2021/12/23 11:10:17;;;;;;;103.63;56.43;;;;;;;;;;4999907;28;20030;-87
2021/12/23 11:40:24;;;;;;;87.53;46.03;;;;;;;;;;5000747;28;20045;-87
2021/12/23 11:48:22;;;;;;;109.65;50.20;;;;;;;;;;5000813;28;20080;-87
2021/12/23 11:53:33;;;;;;;123.20;58.50;;;;;;;;;;5000615;28;20049;-87
2021/12/23 11:56:01;;;;;;;140.85;65.85;;;;;;;;;;4998908;28;20026;-87
2021/12/23 11:58:28;;;;;;;113.95;55.67;;;;;;;;;;4999067;28;20030;-87
2021/12/23 12:04:04;;;;;;;120.07;58.25;;;;;;;;;;5000375;28;20034;-87
2021/12/23 12:06:45;;;;;;;100.63;51.95;;;;;;;;;;4999864;28;20024;-87
2021/12/23 12:09:31;;;;;;;100.13;52.75;;;;;;;;;;4998939;28;20019;-87
2021/12/23 12:12:18;;;;;;;98.80;50.50;;;;;;;;;;4998004;28;20081;-87
2021/12/23 12:14:48;;;;;;;97.43;49.33;;;;;;;;;;4999493;28;20122;-87
2021/12/23 12:20:22;;;;;;;105.90;52.33;;;;;;;;;;5000043;28;20038;-88
2021/12/23 12:22:48;;;;;;;102.38;53.47;;;;;;;;;;4999766;28;20118;-88
2021/12/23 12:25:34;;;;;;;100.15;52.50;;;;;;;;;;4999568;28;20030;-86
2021/12/23 12:28:00;;;;;;;97.22;50.88;;;;;;;;;;4999938;28;20088;-88
2021/12/23 12:30:54;;;;;;;103.20;56.72;;;;;;;;;;4999702;28;20023;-87
2021/12/23 12:36:25;;;;;;;92.32;50.65;;;;;;;;;;4999384;28;20096;-87
2021/12/23 12:38:51;;;;;;;87.97;49.67;;;;;;;;;;4999396;28;20023;-88
2021/12/23 12:41:17;;;;;;;88.45;51.03;;;;;;;;;;4998300;28;20038;-88
2021/12/23 12:43:55;;;;;;;88.45;49.75;;;;;;;;;;4999867;28;20027;-87
2021/12/23 12:52:32;;;;;;;101.25;53.00;;;;;;;;;;4999373;28;20029;-88
2021/12/23 12:55:03;;;;;;;89.82;50.47;;;;;;;;;;4999077;28;20026;-89
2021/12/23 12:57:36;;;;;;;95.28;53.72;;;;;;;;;;4998193;28;20112;-89
2021/12/23 13:00:17;;;;;;;93.90;51.47;;;;;;;;;;4999132;28;20098;-88
2021/12/23 13:02:49;;;;;;;96.70;51.13;;;;;;;;;;4999226;28;20038;-88
2021/12/23 13:05:15;;;;;;;87.88;49.40;;;;;;;;;;4999454;28;20022;-88
2021/12/23 13:07:42;;;;;;;78.03;45.83;;;;;;;;;;4999070;28;20039;-88
2021/12/23 13:10:21;;;;;;;84.68;48.63;;;;;;;;;;4988101;28;20058;-88
2021/12/23 13:15:57;;;;;;;82.30;45.92;;;;;;;;;;4985763;28;20038;-87
2021/12/23 13:21:09;;;;;;;81.78;46.38;;;;;;;;;;4978911;28;19928;-87
2021/12/23 13:23:40;;;;;;;84.47;48.58;;;;;;;;;;4990322;28;20025;-87
2021/12/23 13:26:08;;;;;;;78.88;45.40;;;;;;;;;;4996977;28;20018;-88
2021/12/23 13:28:38;;;;;;;76.82;43.95;;;;;;;;;;4987517;28;20030;-88
2021/12/23 13:31:06;;;;;;;110.07;65.50;;;;;;;;;;4978966;28;20102;-88
2021/12/23 13:39:41;;;;;;;77.90;46.58;;;;;;;;;;4979064;28;20057;-88
2021/12/23 13:42:08;;;;;;;78.63;45.55;;;;;;;;;;4977831;28;20043;-88
2021/12/23 13:44:36;;;;;;;76.70;43.10;;;;;;;;;;4986142;28;20031;-87
2021/12/23 13:50:06;;;;;;;76.40;41.88;;;;;;;;;;4993297;28;20077;-89
2021/12/23 13:52:34;;;;;;;72.88;41.30;;;;;;;;;;4998753;28;20029;-89
2021/12/23 13:55:11;;;;;;;86.97;44.88;;;;;;;;;;4998524;28;20045;-88
2021/12/23 13:57:41;;;;;;;89.88;46.05;;;;;;;;;;4995396;28;20134;-87
2021/12/23 14:00:16;;;;;;;99.40;49.50;;;;;;;;;;4993536;28;20026;-87
2021/12/23 14:02:42;;;;;;;89.53;47.17;;;;;;;;;;4978921;28;20049;-87
2021/12/23 14:05:09;;;;;;;92.25;48.10;;;;;;;;;;4977506;28;20022;-87
2021/12/23 14:07:37;;;;;;;88.13;47.08;;;;;;;;;;4978548;28;20026;-86
2021/12/23 14:10:08;;;;;;;91.57;47.83;;;;;;;;;;4987257;28;20367;-87
2021/12/23 14:12:49;;;;;;;97.93;51.63;;;;;;;;;;4996874;28;20026;-87
2021/12/23 14:15:20;;;;;;;96.53;49.83;;;;;;;;;;5001074;28;20033;-88
2021/12/23 14:18:14;;;;;;;94.75;51.15;;;;;;;;;;4991667;28;20031;-87
2021/12/23 14:23:23;;;;;;;91.93;49.17;;;;;;;;;;4987606;28;20462;-87
2021/12/23 14:25:51;;;;;;;87.22;48.95;;;;;;;;;;4993990;28;20023;-87
2021/12/23 14:28:37;;;;;;;83.72;47.17;;;;;;;;;;4982238;28;20027;-88
2021/12/23 14:31:14;;;;;;;85.43;46.45;;;;;;;;;;4982989;28;20042;-82
2021/12/23 14:33:44;;;;;;;83.10;47.75;;;;;;;;;;4982422;28;20034;-86
2021/12/23 14:36:17;;;;;;;89.93;47.28;;;;;;;;;;4981982;28;20030;-86
2021/12/23 14:38:45;;;;;;;82.13;44.00;;;;;;;;;;4985759;28;20421;-85
2021/12/23 14:41:18;;;;;;;83.95;48.08;;;;;;;;;;4980957;28;20053;-86
2021/12/23 14:43:55;;;;;;;87.90;46.75;;;;;;;;;;4981827;28;20030;-86
2021/12/23 14:46:41;;;;;;;116.05;57.03;;;;;;;;;;4980907;28;20057;-87
2021/12/23 14:51:57;;;;;;;134.48;61.47;;;;;;;;;;4903829;29;20032;-87
2021/12/23 14:54:23;;;;;;;133.43;63.65;;;;;;;;;;4888076;29;20482;-87
2021/12/23 14:56:51;;;;;;;131.65;63.60;;;;;;;;;;4903402;29;20108;-86
2021/12/23 14:59:21;;;;;;;108.55;57.22;;;;;;;;;;4909938;29;20024;-85
2021/12/23 15:01:49;;;;;;;100.88;52.45;;;;;;;;;;4922457;29;20052;-86
2021/12/23 15:04:17;;;;;;;99.05;52.72;;;;;;;;;;4921702;29;20037;-86
2021/12/23 15:07:03;;;;;;;100.13;53.25;;;;;;;;;;4918650;29;20039;-84
2021/12/23 15:09:30;;;;;;;99.20;53.10;;;;;;;;;;4903219;29;20068;-86
2021/12/23 15:11:57;;;;;;;108.55;56.45;;;;;;;;;;4903263;29;20055;-86
2021/12/23 15:14:24;;;;;;;95.15;52.95;;;;;;;;;;4903236;29;20075;-85
2021/12/23 15:17:02;;;;;;;87.35;50.42;;;;;;;;;;4903049;29;20041;-86
2021/12/23 15:22:36;;;;;;;95.55;50.63;;;;;;;;;;4903672;29;20031;-87
2021/12/23 15:25:02;;;;;;;95.20;51.67;;;;;;;;;;4887519;29;20031;-86
2021/12/23 15:27:30;;;;;;;91.03;50.95;;;;;;;;;;4912601;29;20036;-85
2021/12/23 15:30:01;;;;;;;85.15;47.95;;;;;;;;;;4974611;28;20039;-85
2021/12/23 15:32:28;;;;;;;76.80;43.50;;;;;;;;;;4980719;28;20049;-84
2021/12/23 15:35:02;;;;;;;81.07;44.92;;;;;;;;;;4980622;28;20023;-84
2021/12/23 15:37:31;;;;;;;66.30;39.83;;;;;;;;;;4980527;28;20026;-82
2021/12/23 15:39:58;;;;;;;61.85;37.63;;;;;;;;;;4980543;28;20034;-83
2021/12/23 15:42:24;;;;;;;72.85;43.25;;;;;;;;;;4980633;28;20065;-84
2021/12/23 15:44:52;;;;;;;76.30;43.50;;;;;;;;;;4980868;28;20353;-84
2021/12/23 15:47:19;;;;;;;81.22;44.80;;;;;;;;;;4980654;28;20034;-84
2021/12/23 15:49:45;;;;;;;76.13;41.63;;;;;;;;;;4984208;28;20046;-84
2021/12/23 15:52:11;;;;;;;77.95;41.78;;;;;;;;;;4979195;28;20082;-84
2021/12/23 15:54:38;;;;;;;70.35;41.05;;;;;;;;;;4980728;28;20106;-83
2021/12/23 15:57:05;;;;;;;64.07;37.28;;;;;;;;;;4980485;28;20054;-82
2021/12/23 15:59:31;;;;;;;68.97;39.40;;;;;;;;;;4979185;28;20030;-84
2021/12/23 16:01:58;;;;;;;70.07;39.63;;;;;;;;;;4979174;28;20039;-83
2021/12/23 16:04:26;;;;;;;76.28;40.33;;;;;;;;;;4981270;28;20058;-83
2021/12/23 16:09:38;;;;;;;68.70;38.45;;;;;;;;;;4998251;28;20374;-85
2021/12/23 16:12:05;;;;;;;68.35;37.33;;;;;;;;;;5000045;28;20073;-84
2021/12/23 16:14:31;;;;;;;78.28;40.13;;;;;;;;;;4999411;28;20363;-84
2021/12/23 16:16:57;;;;;;;85.55;39.97;;;;;;;;;;4999530;28;20026;-85
2021/12/23 16:19:23;;;;;;;85.70;42.42;;;;;;;;;;4999570;28;20080;-85
2021/12/23 16:21:50;;;;;;;72.90;38.58;;;;;;;;;;4999388;28;20110;-85
2021/12/23 16:24:16;;;;;;;73.50;40.15;;;;;;;;;;4997900;28;20027;-85
2021/12/23 16:26:43;;;;;;;77.93;40.60;;;;;;;;;;4999712;28;20033;-86
2021/12/23 16:29:10;;;;;;;77.05;37.95;;;;;;;;;;4981863;28;20035;-86
2021/12/23 16:31:36;;;;;;;75.78;39.55;;;;;;;;;;4980409;28;20031;-86
2021/12/23 16:34:02;;;;;;;101.03;40.38;;;;;;;;;;4981885;28;20034;-85
2021/12/23 16:36:28;;;;;;;73.65;37.72;;;;;;;;;;4997799;28;20037;-84
2021/12/23 16:38:57;;;;;;;79.10;39.85;;;;;;;;;;4999001;28;20022;-86
2021/12/23 16:41:24;;;;;;;118.32;49.60;;;;;;;;;;4998551;28;20042;-85
2021/12/23 16:43:50;;;;;;;111.90;48.13;;;;;;;;;;4998751;28;20393;-87
2021/12/23 16:46:17;;;;;;;101.13;43.55;;;;;;;;;;4997409;28;20356;-86
2021/12/23 16:48:44;;;;;;;75.85;38.78;;;;;;;;;;4986110;28;20421;-86
2021/12/23 16:51:11;;;;;;;94.95;44.15;;;;;;;;;;4986502;28;20030;-85
2021/12/23 16:53:38;;;;;;;87.90;41.58;;;;;;;;;;4998797;28;20022;-85
2021/12/23 16:58:45;;;;;;;83.88;41.20;;;;;;;;;;4979743;28;20042;-84
2021/12/23 17:01:12;;;;;;;78.93;38.88;;;;;;;;;;4979246;28;20019;-84
2021/12/23 17:03:40;;;;;;;84.72;40.88;;;;;;;;;;4979196;28;20023;-84
2021/12/23 17:06:08;;;;;;;84.70;41.17;;;;;;;;;;4978500;28;20483;-85
2021/12/23 17:08:35;;;;;;;81.80;41.92;;;;;;;;;;4979576;28;20045;-84
2021/12/23 17:11:03;;;;;;;83.53;40.83;;;;;;;;;;4979370;28;20027;-85
2021/12/23 17:13:29;;;;;;;73.82;37.50;;;;;;;;;;4978205;28;20078;-85
2021/12/23 17:15:56;;;;;;;78.82;37.72;;;;;;;;;;4979214;28;20349;-86
2021/12/23 17:18:54;;;;;;;61.95;34.00;;;;;;;;;;4978977;28;20082;-86
2021/12/23 17:23:37;;;;;;;68.53;36.28;;;;;;;;;;4982324;28;20030;-84
2021/12/23 17:26:03;;;;;;;57.33;34.38;;;;;;;;;;4988492;28;20133;-86
2021/12/23 17:28:29;;;;;;;56.35;32.85;;;;;;;;;;4996461;28;20109;-86
2021/12/23 17:30:56;;;;;;;57.25;32.97;;;;;;;;;;4993580;28;20298;-84
2021/12/23 17:33:23;;;;;;;63.33;36.08;;;;;;;;;;4978783;28;20027;-84
2021/12/23 17:35:53;;;;;;;69.07;37.80;;;;;;;;;;4980048;28;20035;-83
2021/12/23 17:38:23;;;;;;;69.20;40.03;;;;;;;;;;4989667;28;20035;-83
2021/12/23 17:40:49;;;;;;;64.28;36.10;;;;;;;;;;4998007;28;20352;-85
2021/12/23 17:43:17;;;;;;;63.40;36.88;;;;;;;;;;4985680;28;20372;-87
2021/12/23 17:45:44;;;;;;;61.45;36.60;;;;;;;;;;4997693;28;20080;-85
2021/12/23 17:48:10;;;;;;;62.95;35.25;;;;;;;;;;4997649;28;20030;-83
2021/12/23 17:50:37;;;;;;;62.55;36.65;;;;;;;;;;4998522;28;20026;-83
2021/12/23 17:53:05;;;;;;;63.35;36.38;;;;;;;;;;4998021;28;20089;-85
2021/12/23 17:55:32;;;;;;;73.97;38.72;;;;;;;;;;4981144;28;20100;-85
2021/12/23 17:57:58;;;;;;;83.03;38.53;;;;;;;;;;4997112;28;20094;-85
2021/12/23 18:00:24;;;;;;;97.57;39.75;;;;;;;;;;4997974;28;20117;-85
2021/12/23 18:02:50;;;;;;;86.22;39.25;;;;;;;;;;4997933;28;20038;-85
2021/12/23 18:05:16;;;;;;;77.50;37.00;;;;;;;;;;4996808;28;20034;-87
2021/12/23 18:07:44;;;;;;;77.03;36.00;;;;;;;;;;4998271;28;20316;-87
2021/12/23 18:10:12;;;;;;;62.30;35.88;;;;;;;;;;4998296;28;20137;-87
2021/12/23 18:12:38;;;;;;;68.75;39.47;;;;;;;;;;4998101;28;20026;-87
2021/12/23 18:15:04;;;;;;;64.50;35.97;;;;;;;;;;4998178;28;20033;-87
2021/12/23 18:17:49;;;;;;;72.88;38.78;;;;;;;;;;4996996;28;20057;-86
2021/12/23 18:20:15;;;;;;;80.55;41.22;;;;;;;;;;4996946;28;20026;-87
2021/12/23 18:22:41;;;;;;;79.00;42.35;;;;;;;;;;4998012;28;20042;-87
2021/12/23 18:25:09;;;;;;;98.97;50.30;;;;;;;;;;4998084;28;20065;-87
2021/12/23 18:27:36;;;;;;;73.93;40.65;;;;;;;;;;4997673;28;20050;-87
2021/12/23 18:30:05;;;;;;;78.95;44.58;;;;;;;;;;4997050;28;20026;-85
2021/12/23 18:32:31;;;;;;;76.88;42.70;;;;;;;;;;4998009;28;20102;-86
2021/12/23 18:38:04;;;;;;;78.63;43.75;;;;;;;;;;4982853;28;20077;-88
2021/12/23 18:40:34;;;;;;;98.63;51.90;;;;;;;;;;4978298;28;20118;-88
2021/12/23 18:43:04;;;;;;;100.75;54.78;;;;;;;;;;4978600;28;20043;-87
2021/12/23 18:45:31;;;;;;;108.55;59.88;;;;;;;;;;4977051;28;20054;-89
2021/12/23 18:47:57;;;;;;;96.30;54.80;;;;;;;;;;4983735;28;20049;-88
2021/12/23 18:50:25;;;;;;;81.47;47.08;;;;;;;;;;4988228;28;20125;-88
2021/12/23 18:52:52;;;;;;;80.70;44.22;;;;;;;;;;4989514;28;20110;-87
2021/12/23 18:55:18;;;;;;;76.50;44.03;;;;;;;;;;4976912;28;20031;-88
2021/12/23 18:57:44;;;;;;;79.65;43.38;;;;;;;;;;4978308;28;20027;-88
2021/12/23 19:00:17;;;;;;;77.05;42.28;;;;;;;;;;4979833;28;20035;-88
2021/12/23 19:03:01;;;;;;;78.88;44.17;;;;;;;;;;4981655;28;20026;-87
2021/12/23 19:05:39;;;;;;;82.85;44.40;;;;;;;;;;4980270;28;20417;-87
2021/12/23 19:08:05;;;;;;;88.47;47.20;;;;;;;;;;4981582;28;20039;-87
2021/12/23 19:10:32;;;;;;;89.78;47.85;;;;;;;;;;4981525;28;20045;-88
2021/12/23 19:12:58;;;;;;;86.22;48.13;;;;;;;;;;4979870;28;20039;-88
2021/12/23 19:15:24;;;;;;;79.82;44.92;;;;;;;;;;4981516;28;20394;-88
2021/12/23 19:17:50;;;;;;;88.43;47.38;;;;;;;;;;4982052;28;20428;-88
2021/12/23 19:20:17;;;;;;;82.22;46.97;;;;;;;;;;4981341;28;20066;-88